Time;durP1;ratioP1;P1;durP2;ratioP2;P2;SDS_P1;SDS_P2;PMS_P1;PMS_P2;Temp;Humidity;BMP_temperature;BMP_pressure;BME280_temperature;BME280_humidity;BME280_pressure;Samples;Min_cycle;Max_cycle;Signal;HPM_P1;HPM_P2
2022/01/21 00:00:56;;;;;;;5.53;2.20;;;-1.60;99.90;;;;;;4992745;28;20065;-76
2022/01/21 00:03:22;;;;;;;2.47;1.33;;;-0.50;99.90;;;;;;4990100;28;20054;-76
2022/01/21 00:05:48;;;;;;;6.90;1.10;;;-2.00;99.90;;;;;;4982867;28;20467;-75
2022/01/21 00:08:13;;;;;;;2.83;1.15;;;-1.70;99.90;;;;;;5006933;28;20042;-75
2022/01/21 00:10:39;;;;;;;8.65;2.15;;;-1.50;99.90;;;;;;4997963;28;20053;-76
2022/01/21 00:13:14;;;;;;;3.80;1.48;;;-1.90;99.90;;;;;;4997216;28;20027;-77
2022/01/21 00:15:40;;;;;;;1.85;1.45;;;-1.70;99.90;;;;;;4993192;28;20433;-78
2022/01/21 00:18:08;;;;;;;5.60;1.40;;;-1.70;99.90;;;;;;4980005;28;20062;-76
2022/01/21 00:31:30;;;;;;;4.28;1.77;;;-1.60;99.90;;;;;;4992697;28;20037;-76
2022/01/21 00:33:56;;;;;;;8.10;2.65;;;-1.50;99.90;;;;;;4985577;28;20311;-76
2022/01/21 00:36:21;;;;;;;8.75;4.93;;;-0.80;99.90;;;;;;4993596;28;20406;-76
2022/01/21 00:38:47;;;;;;;5.55;2.88;;;0.00;99.90;;;;;;4991658;28;20088;-76
2022/01/21 00:41:19;;;;;;;8.63;3.67;;;-0.70;99.90;;;;;;4974504;28;20029;-76
2022/01/21 00:43:45;;;;;;;7.43;3.38;;;-0.10;99.90;;;;;;5001487;28;20022;-76
2022/01/21 00:46:12;;;;;;;5.20;2.85;;;-1.20;99.90;;;;;;4986381;28;20080;-78
2022/01/21 00:48:39;;;;;;;12.82;2.80;;;-1.20;99.90;;;;;;4994580;28;20057;-76
2022/01/21 00:51:05;;;;;;;5.85;3.05;;;-1.20;99.90;;;;;;4997487;28;20018;-77
2022/01/21 00:53:31;;;;;;;6.75;3.00;;;-0.40;99.90;;;;;;4981270;28;20474;-75
2022/01/21 00:55:57;;;;;;;6.18;3.25;;;-1.10;99.90;;;;;;4993471;28;20023;-76
2022/01/21 00:58:22;;;;;;;6.10;3.60;;;-1.10;99.90;;;;;;4996375;28;20203;-75
2022/01/21 01:00:48;;;;;;;5.72;3.05;;;-1.00;99.90;;;;;;4992762;28;20042;-75
2022/01/21 01:03:15;;;;;;;7.10;3.10;;;-1.10;99.90;;;;;;4977179;28;20113;-75
2022/01/21 01:05:41;;;;;;;10.45;2.75;;;-0.90;99.90;;;;;;4978665;28;20088;-75
2022/01/21 01:08:06;;;;;;;4.30;2.25;;;-0.80;99.90;;;;;;4988206;28;20030;-75
2022/01/21 01:11:21;;;;;;;3.85;2.22;;;-1.20;99.90;;;;;;4988392;28;20438;-75
2022/01/21 01:21:36;;;;;;;4.45;2.45;;;-1.20;99.90;;;;;;4989193;28;20116;-76
2022/01/21 01:29:20;;;;;;;7.22;2.10;;;-1.10;99.90;;;;;;4990395;28;20050;-75
2022/01/21 01:31:46;;;;;;;7.60;2.38;;;-1.10;99.90;;;;;;4994539;28;20053;-75
2022/01/21 01:34:12;;;;;;;5.82;2.47;;;-1.00;99.90;;;;;;4995515;28;20042;-75
2022/01/21 01:36:42;;;;;;;4.55;2.17;;;-0.80;99.90;;;;;;4996943;28;20058;-75
2022/01/21 01:42:32;;;;;;;5.50;2.15;;;-1.20;99.90;;;;;;4996008;28;20474;-75
2022/01/21 01:50:35;;;;;;;1.88;1.45;;;-1.10;99.90;;;;;;4979715;28;20022;-75
2022/01/21 01:53:01;;;;;;;2.58;1.85;;;-1.20;99.90;;;;;;4975563;28;20035;-75
2022/01/21 01:55:27;;;;;;;3.17;2.20;;;-1.20;99.90;;;;;;4996947;28;20143;-74
2022/01/21 01:57:53;;;;;;;5.18;2.10;;;-1.30;99.90;;;;;;4993775;28;20580;-75
2022/01/21 02:00:19;;;;;;;4.68;1.90;;;-0.80;99.90;;;;;;4991743;28;20166;-74
2022/01/21 02:02:45;;;;;;;6.63;2.05;;;-1.30;99.90;;;;;;4999116;28;20029;-74
2022/01/21 02:05:10;;;;;;;7.32;2.47;;;-1.20;99.90;;;;;;4997178;28;20025;-74
2022/01/21 02:07:36;;;;;;;4.95;1.65;;;-1.00;99.90;;;;;;4981242;28;20061;-75
2022/01/21 02:10:03;;;;;;;4.22;2.15;;;-1.30;99.90;;;;;;4977126;28;20026;-75
2022/01/21 02:12:29;;;;;;;3.47;2.08;;;-1.50;99.90;;;;;;4992973;28;20037;-75
2022/01/21 02:14:55;;;;;;;5.07;1.63;;;-1.60;99.90;;;;;;4996159;28;20034;-75
2022/01/21 02:22:38;;;;;;;4.47;2.15;;;-1.10;99.90;;;;;;5000403;28;20102;-75
2022/01/21 02:25:16;;;;;;;7.90;1.73;;;-1.60;99.90;;;;;;4995503;28;20018;-75
2022/01/21 02:27:46;;;;;;;7.80;2.50;;;-1.60;99.90;;;;;;4995779;28;20034;-74
2022/01/21 02:30:18;;;;;;;5.95;2.13;;;-1.30;99.90;;;;;;4982232;28;20022;-75
2022/01/21 02:33:03;;;;;;;2.70;1.88;;;-0.80;99.90;;;;;;4976925;28;20065;-74
2022/01/21 02:35:28;;;;;;;5.63;1.90;;;-0.80;99.90;;;;;;4993928;28;20022;-74
2022/01/21 02:37:54;;;;;;;3.10;1.52;;;-1.30;99.90;;;;;;4991710;28;20249;-74
2022/01/21 02:40:20;;;;;;;3.88;1.48;;;-0.70;99.90;;;;;;4991765;28;20238;-75
2022/01/21 02:42:46;;;;;;;2.95;1.83;;;-1.00;99.90;;;;;;4996694;28;20022;-75
2022/01/21 02:45:14;;;;;;;4.47;1.75;;;-1.30;99.90;;;;;;4978560;28;20027;-75
2022/01/21 02:47:41;;;;;;;7.97;1.92;;;-1.30;99.90;;;;;;4991930;28;20022;-75
2022/01/21 02:50:10;;;;;;;4.75;1.50;;;-1.20;99.90;;;;;;4973532;28;20061;-74
2022/01/21 02:52:42;;;;;;;4.70;2.45;;;-1.20;99.90;;;;;;4989591;28;20076;-74
2022/01/21 02:55:09;;;;;;;4.35;2.10;;;-0.80;99.90;;;;;;4972258;28;20134;-75
2022/01/21 02:57:35;;;;;;;2.72;2.03;;;-1.20;99.90;;;;;;4989819;28;20030;-74
2022/01/21 03:00:00;;;;;;;7.32;3.08;;;-1.10;99.90;;;;;;4972379;28;20475;-75
2022/01/21 03:02:26;;;;;;;7.85;2.78;;;-1.10;99.90;;;;;;4972091;28;20037;-75
2022/01/21 03:05:01;;;;;;;3.25;2.33;;;-1.10;99.90;;;;;;4989989;28;20498;-74
2022/01/21 03:07:27;;;;;;;9.35;2.63;;;-0.80;99.90;;;;;;4991271;28;20468;-74
2022/01/21 03:09:52;;;;;;;6.45;2.67;;;-0.70;99.90;;;;;;4991018;28;20034;-75
2022/01/21 03:12:18;;;;;;;4.65;2.50;;;-0.10;99.90;;;;;;4973745;28;20080;-75
2022/01/21 03:14:44;;;;;;;7.80;2.58;;;-0.30;99.90;;;;;;4991374;28;20034;-75
2022/01/21 03:17:09;;;;;;;5.60;2.85;;;0.90;99.90;;;;;;4991339;28;20352;-74
2022/01/21 03:19:35;;;;;;;4.13;2.70;;;-0.40;99.90;;;;;;4991391;28;20026;-74
2022/01/21 03:22:02;;;;;;;4.40;2.38;;;1.00;99.90;;;;;;4991424;28;20378;-75
2022/01/21 03:24:28;;;;;;;7.22;2.22;;;0.20;99.90;;;;;;4991195;28;20076;-76
2022/01/21 03:26:54;;;;;;;3.40;2.05;;;1.00;99.90;;;;;;4991224;28;20399;-74
2022/01/21 03:29:20;;;;;;;4.07;1.92;;;0.90;99.90;;;;;;4991087;28;20030;-74
2022/01/21 03:31:45;;;;;;;3.70;2.40;;;-0.30;99.90;;;;;;4990929;28;20233;-75
2022/01/21 03:34:11;;;;;;;4.57;2.05;;;0.70;99.90;;;;;;4991045;28;20163;-74
2022/01/21 03:36:38;;;;;;;7.68;2.58;;;0.90;99.90;;;;;;4990793;28;20065;-74
2022/01/21 03:39:04;;;;;;;3.70;2.30;;;0.90;99.90;;;;;;4990496;28;20054;-75
2022/01/21 03:41:30;;;;;;;9.88;1.90;;;0.80;99.90;;;;;;4990805;28;20065;-75
2022/01/21 03:43:56;;;;;;;6.57;2.40;;;0.90;99.90;;;;;;4991058;28;20129;-75
2022/01/21 03:46:21;;;;;;;6.60;3.00;;;-0.20;99.90;;;;;;4990973;28;20018;-75
2022/01/21 03:48:49;;;;;;;6.53;2.38;;;1.00;99.90;;;;;;4991424;28;20269;-75
2022/01/21 03:51:17;;;;;;;12.30;2.90;;;0.90;99.90;;;;;;4990902;28;20121;-75
2022/01/21 03:53:44;;;;;;;10.95;2.58;;;0.10;99.90;;;;;;4991017;28;20040;-75
2022/01/21 03:56:10;;;;;;;6.15;2.17;;;-0.80;99.90;;;;;;4990928;28;20029;-75
2022/01/21 03:58:35;;;;;;;4.13;2.53;;;-0.80;99.90;;;;;;4990861;28;20027;-75
2022/01/21 04:01:01;;;;;;;16.42;2.30;;;0.10;99.90;;;;;;4989798;28;20052;-74
2022/01/21 04:03:27;;;;;;;4.95;2.05;;;0.30;99.90;;;;;;4990440;28;20027;-75
2022/01/21 04:05:53;;;;;;;5.05;2.45;;;1.10;99.90;;;;;;4990932;28;20162;-74
2022/01/21 04:08:19;;;;;;;4.57;2.20;;;0.20;99.90;;;;;;4973026;28;20454;-75
2022/01/21 04:10:48;;;;;;;10.23;2.25;;;-0.40;99.90;;;;;;4990760;28;20030;-74
2022/01/21 04:13:16;;;;;;;1.67;1.33;;;-0.40;99.90;;;;;;4990488;28;20061;-75
2022/01/21 04:15:43;;;;;;;7.43;2.67;;;-0.30;99.90;;;;;;4990272;28;20033;-75
2022/01/21 04:18:13;;;;;;;6.88;3.95;;;0.00;99.90;;;;;;4972567;28;20026;-75
2022/01/21 04:20:38;;;;;;;4.40;2.05;;;-0.30;99.90;;;;;;4989825;28;20033;-75
2022/01/21 04:23:04;;;;;;;6.13;2.17;;;-0.20;99.90;;;;;;4990083;28;20474;-75
2022/01/21 04:25:30;;;;;;;6.93;2.20;;;-0.20;99.90;;;;;;4990196;28;20022;-75
2022/01/21 04:27:56;;;;;;;11.52;4.07;;;-0.20;99.90;;;;;;4989883;28;20038;-77
2022/01/21 04:30:22;;;;;;;5.72;2.03;;;1.10;99.90;;;;;;4989919;28;20033;-75
2022/01/21 04:32:47;;;;;;;3.92;2.10;;;1.10;99.90;;;;;;4989544;28;20042;-75
2022/01/21 04:35:13;;;;;;;7.20;2.65;;;1.20;99.90;;;;;;4989902;28;20376;-76
2022/01/21 04:37:45;;;;;;;11.73;2.83;;;0.80;99.90;;;;;;4988589;28;20050;-75
2022/01/21 04:40:15;;;;;;;9.20;3.28;;;0.80;99.90;;;;;;4990355;28;20076;-75
2022/01/21 04:48:09;;;;;;;5.63;2.70;;;1.00;99.90;;;;;;4989588;28;20038;-75
2022/01/21 04:50:53;;;;;;;5.47;2.58;;;0.70;99.90;;;;;;4990489;28;20026;-75
2022/01/21 04:53:19;;;;;;;4.13;2.45;;;-0.20;99.90;;;;;;4993562;28;20041;-75
2022/01/21 04:55:46;;;;;;;9.88;3.40;;;0.90;99.90;;;;;;4993741;28;20014;-75
2022/01/21 04:58:12;;;;;;;7.50;2.22;;;-0.20;99.90;;;;;;4993515;28;20345;-75
2022/01/21 05:00:38;;;;;;;5.68;2.22;;;-0.20;99.90;;;;;;4993465;28;20031;-74
2022/01/21 05:03:03;;;;;;;5.20;2.75;;;0.80;99.90;;;;;;4993186;28;20398;-75
2022/01/21 05:05:29;;;;;;;4.10;2.03;;;-0.20;99.90;;;;;;4993271;28;20030;-75
2022/01/21 05:07:56;;;;;;;3.88;1.83;;;1.10;99.90;;;;;;4993341;28;20033;-75
2022/01/21 05:10:26;;;;;;;4.32;1.48;;;-0.20;99.90;;;;;;4993504;28;20403;-75
2022/01/21 05:12:52;;;;;;;6.22;2.03;;;0.00;99.90;;;;;;4993276;28;20022;-75
2022/01/21 05:17:52;;;;;;;8.43;1.95;;;0.30;99.90;;;;;;4993410;28;20113;-75
2022/01/21 05:20:18;;;;;;;19.33;2.55;;;1.20;99.90;;;;;;4992952;28;20110;-75
2022/01/21 05:22:45;;;;;;;2.90;1.55;;;0.60;99.90;;;;;;4992809;28;20334;-75
2022/01/21 05:25:16;;;;;;;2.20;1.15;;;-0.20;99.90;;;;;;4992846;28;20517;-74
2022/01/21 05:27:51;;;;;;;7.05;1.98;;;-0.10;99.90;;;;;;4993027;28;20022;-75
2022/01/21 05:30:17;;;;;;;5.32;2.08;;;0.00;99.90;;;;;;4993221;28;20431;-75
2022/01/21 05:32:43;;;;;;;5.13;2.38;;;0.90;99.90;;;;;;4992607;28;20026;-75
2022/01/21 05:35:09;;;;;;;4.05;2.10;;;-0.10;99.90;;;;;;4992731;28;20033;-75
2022/01/21 05:37:36;;;;;;;3.72;1.75;;;-0.10;99.90;;;;;;4971784;28;20061;-75
2022/01/21 05:40:08;;;;;;;4.45;2.22;;;-0.20;99.90;;;;;;4973107;28;20034;-75
2022/01/21 05:42:35;;;;;;;5.43;1.45;;;-0.10;99.90;;;;;;4973138;28;20023;-75
2022/01/21 05:47:29;;;;;;;6.03;1.70;;;-0.20;99.90;;;;;;4973016;28;20023;-76
2022/01/21 05:49:55;;;;;;;8.20;1.70;;;-0.20;99.90;;;;;;4973446;28;20089;-75
2022/01/21 05:52:27;;;;;;;13.57;3.13;;;0.70;99.90;;;;;;4972822;28;20113;-74
2022/01/21 05:54:53;;;;;;;7.50;3.78;;;1.10;99.90;;;;;;4973089;28;20077;-75
2022/01/21 05:57:19;;;;;;;10.48;3.75;;;0.20;99.90;;;;;;4972959;28;20506;-75
2022/01/21 05:59:45;;;;;;;9.18;3.40;;;1.10;99.90;;;;;;4972778;28;20019;-76
2022/01/21 06:02:12;;;;;;;3.72;1.42;;;-0.20;99.90;;;;;;4971718;28;20073;-76
2022/01/21 06:04:40;;;;;;;6.53;2.53;;;-0.20;99.90;;;;;;4972933;28;20058;-75
2022/01/21 06:07:07;;;;;;;7.07;2.83;;;1.10;99.90;;;;;;4973460;28;20135;-76
2022/01/21 06:09:32;;;;;;;8.70;3.13;;;-0.40;99.90;;;;;;4988803;28;20031;-77
2022/01/21 06:11:58;;;;;;;3.10;2.45;;;1.20;99.90;;;;;;4975023;28;20023;-78
2022/01/21 06:14:25;;;;;;;5.03;1.88;;;-0.20;99.90;;;;;;4982154;28;21051;-77
2022/01/21 06:16:54;;;;;;;2.30;2.08;;;-0.50;99.90;;;;;;4993666;28;20026;-75
2022/01/21 06:19:21;;;;;;;17.85;6.82;;;1.00;99.90;;;;;;4973831;28;20031;-75
2022/01/21 06:21:47;;;;;;;5.20;2.20;;;-2.90;99.90;;;;;;4973721;28;20038;-77
2022/01/21 06:24:12;;;;;;;4.93;2.08;;;1.10;99.90;;;;;;4972807;28;20503;-76
2022/01/21 06:26:38;;;;;;;2.50;1.48;;;0.80;99.90;;;;;;4972633;28;20069;-75
2022/01/21 06:29:04;;;;;;;5.13;2.58;;;-0.70;99.90;;;;;;4975798;28;20106;-75
2022/01/21 06:31:31;;;;;;;3.25;1.55;;;0.90;99.90;;;;;;4986872;28;20026;-75
2022/01/21 06:33:57;;;;;;;5.25;2.53;;;-0.80;99.90;;;;;;4972666;28;20315;-76
2022/01/21 06:36:23;;;;;;;6.20;1.95;;;-0.90;99.90;;;;;;4977575;28;20685;-76
2022/01/21 06:38:49;;;;;;;8.63;2.85;;;0.70;99.90;;;;;;4990598;28;20092;-76
2022/01/21 06:41:14;;;;;;;7.97;3.35;;;-0.80;99.90;;;;;;4990871;28;20030;-75
2022/01/21 06:43:40;;;;;;;18.80;5.30;;;0.40;99.90;;;;;;4990593;28;20022;-76
2022/01/21 06:46:07;;;;;;;23.17;3.35;;;0.80;99.90;;;;;;4971902;28;20019;-75
2022/01/21 06:48:33;;;;;;;7.38;2.30;;;0.70;99.90;;;;;;4989955;28;20080;-76
2022/01/21 06:50:59;;;;;;;8.15;3.53;;;-0.20;99.90;;;;;;4989295;28;20076;-74
2022/01/21 06:53:25;;;;;;;7.82;2.95;;;-1.10;99.90;;;;;;4974235;28;20117;-76
2022/01/21 06:55:50;;;;;;;9.57;3.05;;;-0.10;99.90;;;;;;4999887;28;20282;-74
2022/01/21 06:58:16;;;;;;;9.32;2.92;;;0.20;99.90;;;;;;5000591;28;20034;-75
2022/01/21 07:00:42;;;;;;;6.47;2.70;;;-0.50;99.90;;;;;;4995205;28;20030;-75
2022/01/21 07:03:08;;;;;;;6.70;3.47;;;-1.10;99.90;;;;;;4998387;28;20041;-76
2022/01/21 07:05:33;;;;;;;9.25;3.75;;;-0.90;99.90;;;;;;4998228;28;20306;-76
2022/01/21 07:08:00;;;;;;;14.73;6.05;;;-1.20;99.90;;;;;;4982147;28;20018;-76
2022/01/21 07:10:27;;;;;;;5.95;3.60;;;-1.20;99.90;;;;;;4999604;28;20372;-76
2022/01/21 07:12:53;;;;;;;8.20;3.60;;;0.00;99.90;;;;;;4991182;28;20031;-75
2022/01/21 07:15:19;;;;;;;12.35;4.07;;;-0.60;99.90;;;;;;4992109;28;20030;-75
2022/01/21 07:17:52;;;;;;;10.38;3.47;;;-1.10;99.90;;;;;;4995714;28;20117;-76
2022/01/21 07:20:18;;;;;;;5.22;3.38;;;-1.20;99.90;;;;;;4992648;28;20072;-76
2022/01/21 07:22:44;;;;;;;2.78;2.03;;;0.20;99.90;;;;;;4994186;28;20422;-74
2022/01/21 07:25:10;;;;;;;6.68;1.83;;;-1.20;99.90;;;;;;5002097;28;20053;-75
2022/01/21 07:27:36;;;;;;;18.25;6.57;;;0.80;99.90;;;;;;4997281;28;20226;-77
2022/01/21 07:30:04;;;;;;;7.45;2.70;;;-1.20;99.90;;;;;;4994220;28;20102;-77
2022/01/21 07:32:31;;;;;;;7.15;3.05;;;-1.20;99.90;;;;;;4975063;28;20385;-76
2022/01/21 07:34:56;;;;;;;6.60;3.00;;;-1.10;99.90;;;;;;4995869;28;20034;-78
2022/01/21 07:37:22;;;;;;;7.28;3.50;;;-1.10;99.90;;;;;;4992907;28;20507;-75
2022/01/21 07:39:48;;;;;;;5.50;2.65;;;-0.40;99.90;;;;;;4980031;28;20470;-77
2022/01/21 07:42:13;;;;;;;6.50;2.60;;;-0.30;99.90;;;;;;4996415;28;20053;-76
2022/01/21 07:44:39;;;;;;;5.85;2.63;;;-1.10;99.90;;;;;;4994574;28;20037;-76
2022/01/21 07:47:05;;;;;;;6.53;3.45;;;-1.20;99.90;;;;;;4997363;28;20026;-75
2022/01/21 07:49:31;;;;;;;7.07;3.03;;;-1.10;99.90;;;;;;4992859;28;20019;-76
2022/01/21 07:51:57;;;;;;;6.93;3.25;;;-0.10;99.90;;;;;;4997861;28;20022;-76
2022/01/21 07:54:23;;;;;;;5.10;3.38;;;-1.00;99.90;;;;;;5001137;28;20366;-75
2022/01/21 07:56:49;;;;;;;6.43;2.88;;;-1.10;99.90;;;;;;4982356;28;20031;-75
2022/01/21 07:59:16;;;;;;;11.35;3.78;;;-1.10;99.90;;;;;;4999285;28;20404;-76
2022/01/21 08:01:42;;;;;;;5.60;3.83;;;-0.70;99.90;;;;;;4998350;28;20089;-76
2022/01/21 08:04:08;;;;;;;11.45;3.72;;;-0.80;99.90;;;;;;4998947;28;20034;-78
2022/01/21 08:06:34;;;;;;;7.60;2.78;;;-0.80;99.90;;;;;;4998526;28;20298;-77
2022/01/21 08:09:01;;;;;;;8.40;3.38;;;-0.30;99.90;;;;;;4996548;28;20318;-78
2022/01/21 08:11:27;;;;;;;6.93;2.72;;;-0.60;99.90;;;;;;4980433;28;20021;-80
2022/01/21 08:13:53;;;;;;;6.13;3.67;;;-0.10;99.90;;;;;;4979754;28;20062;-83
2022/01/21 08:16:19;;;;;;;4.95;2.53;;;-0.50;99.90;;;;;;4982576;28;20029;-77
2022/01/21 08:18:45;;;;;;;4.18;2.28;;;-0.60;99.90;;;;;;4979945;28;20041;-76
2022/01/21 08:21:18;;;;;;;7.07;3.10;;;0.10;99.90;;;;;;4998697;28;20315;-76
2022/01/21 08:23:48;;;;;;;8.38;2.90;;;1.00;99.90;;;;;;4995319;28;20094;-76
2022/01/21 08:26:14;;;;;;;4.13;2.88;;;-0.50;99.90;;;;;;4995728;28;20487;-75
2022/01/21 08:28:40;;;;;;;10.85;2.65;;;-0.40;99.90;;;;;;5001036;28;20074;-75
2022/01/21 08:31:06;;;;;;;4.25;3.00;;;-0.40;99.90;;;;;;5001810;28;20054;-75
2022/01/21 08:33:31;;;;;;;6.43;2.53;;;0.30;99.90;;;;;;5001429;28;20032;-75
2022/01/21 08:35:57;;;;;;;7.80;3.30;;;-0.50;99.90;;;;;;4996841;28;20093;-77
2022/01/21 08:38:23;;;;;;;10.68;3.38;;;-0.40;99.90;;;;;;5001459;28;20029;-76
2022/01/21 08:40:49;;;;;;;11.57;2.78;;;-0.30;99.90;;;;;;4998529;28;20143;-78
2022/01/21 08:43:15;;;;;;;5.72;3.15;;;0.50;99.90;;;;;;4997650;28;20030;-80
2022/01/21 08:45:40;;;;;;;18.98;3.10;;;1.00;99.90;;;;;;4977864;28;20301;-80
2022/01/21 08:48:06;;;;;;;3.92;1.95;;;0.90;99.90;;;;;;5001149;28;20034;-80
2022/01/21 08:50:32;;;;;;;7.88;2.42;;;0.10;99.90;;;;;;5002038;28;20058;-80
2022/01/21 08:53:09;;;;;;;9.35;2.80;;;-0.10;99.90;;;;;;5000944;28;20026;-80
2022/01/21 08:55:35;;;;;;;3.33;2.15;;;-0.10;99.90;;;;;;5009777;28;20018;-80
2022/01/21 08:58:01;;;;;;;5.22;2.05;;;0.00;99.90;;;;;;4995112;28;20030;-81
2022/01/21 09:00:27;;;;;;;5.13;2.38;;;1.10;99.90;;;;;;5004243;28;20069;-79
2022/01/21 09:02:53;;;;;;;9.30;2.92;;;0.50;99.90;;;;;;4984830;28;20330;-80
2022/01/21 09:05:19;;;;;;;8.80;2.83;;;1.00;99.90;;;;;;4983414;28;20676;-79
2022/01/21 09:07:44;;;;;;;7.80;3.03;;;1.10;99.90;;;;;;4996244;28;20033;-78
2022/01/21 09:10:11;;;;;;;3.33;2.97;;;1.10;99.90;;;;;;5001016;28;20030;-78
2022/01/21 09:12:37;;;;;;;9.77;2.88;;;1.20;99.90;;;;;;4991940;28;20032;-78
2022/01/21 09:15:04;;;;;;;11.25;2.83;;;0.10;99.90;;;;;;4989161;28;20282;-77
2022/01/21 09:17:30;;;;;;;14.18;4.57;;;0.20;99.90;;;;;;4982537;28;20042;-77
2022/01/21 09:19:56;;;;;;;5.95;2.92;;;0.60;99.90;;;;;;5003277;28;20027;-78
2022/01/21 09:22:21;;;;;;;9.48;2.83;;;0.80;99.90;;;;;;4971479;28;20022;-77
2022/01/21 09:24:47;;;;;;;7.90;2.88;;;1.00;99.90;;;;;;4971034;28;20116;-78
2022/01/21 09:27:13;;;;;;;10.80;4.00;;;0.50;99.90;;;;;;4974246;28;20084;-78
2022/01/21 09:29:39;;;;;;;7.63;2.67;;;1.00;99.90;;;;;;4970568;28;20092;-77
2022/01/21 09:32:05;;;;;;;8.38;2.60;;;0.50;99.90;;;;;;4970000;28;20026;-77
2022/01/21 09:34:31;;;;;;;11.98;2.85;;;0.50;99.90;;;;;;4970395;28;20061;-78
2022/01/21 09:36:59;;;;;;;22.17;4.78;;;0.60;99.90;;;;;;4986424;28;20100;-78
2022/01/21 09:39:26;;;;;;;11.98;3.80;;;0.50;99.90;;;;;;4987401;28;20060;-78
2022/01/21 09:41:54;;;;;;;5.85;3.17;;;1.30;99.90;;;;;;4970590;28;20068;-77
2022/01/21 09:44:22;;;;;;;5.03;1.90;;;0.70;99.90;;;;;;4988062;28;20485;-76
2022/01/21 09:46:50;;;;;;;8.05;2.72;;;0.60;99.90;;;;;;4988986;28;20356;-78
2022/01/21 09:49:27;;;;;;;8.77;3.35;;;1.20;99.90;;;;;;4971516;28;20034;-78
2022/01/21 09:52:05;;;;;;;13.75;2.83;;;1.00;99.90;;;;;;4987678;28;20026;-78
2022/01/21 09:54:34;;;;;;;10.63;3.38;;;0.50;99.90;;;;;;4991530;28;20110;-78
2022/01/21 09:57:01;;;;;;;3.53;2.05;;;0.40;99.90;;;;;;5000988;28;20023;-79
2022/01/21 09:59:32;;;;;;;5.32;2.78;;;1.10;99.90;;;;;;5001046;28;20018;-78
2022/01/21 10:02:01;;;;;;;11.07;3.10;;;0.80;99.90;;;;;;4998837;28;20030;-78
2022/01/21 10:04:30;;;;;;;10.10;3.72;;;1.20;99.90;;;;;;4998389;28;20625;-77
2022/01/21 10:06:57;;;;;;;12.57;4.15;;;1.40;99.90;;;;;;4999342;28;20035;-79
2022/01/21 10:09:24;;;;;;;8.55;3.50;;;0.50;99.90;;;;;;4999404;28;20022;-79
2022/01/21 10:11:52;;;;;;;8.40;2.38;;;0.90;99.90;;;;;;4998669;28;20130;-77
2022/01/21 10:14:23;;;;;;;8.98;2.97;;;1.00;99.90;;;;;;4998613;28;20100;-78
2022/01/21 10:16:50;;;;;;;6.20;2.30;;;0.60;99.90;;;;;;4999203;28;20262;-77
2022/01/21 10:19:24;;;;;;;7.63;2.50;;;1.10;99.90;;;;;;4998568;28;20073;-78
2022/01/21 10:21:58;;;;;;;6.40;3.55;;;1.20;99.90;;;;;;4998152;28;20341;-78
2022/01/21 10:24:24;;;;;;;5.63;2.45;;;0.90;99.90;;;;;;4997380;28;20038;-78
2022/01/21 10:26:52;;;;;;;4.03;2.13;;;0.90;99.90;;;;;;4997094;28;20093;-78
2022/01/21 10:29:20;;;;;;;3.55;1.98;;;1.20;99.90;;;;;;4998531;28;20100;-78
2022/01/21 10:31:58;;;;;;;13.27;4.43;;;1.10;99.90;;;;;;4998723;28;20349;-78
2022/01/21 10:34:26;;;;;;;8.30;3.05;;;1.20;99.90;;;;;;4997022;28;20030;-78
2022/01/21 10:36:57;;;;;;;9.57;2.17;;;1.20;99.90;;;;;;4998164;28;20142;-78
2022/01/21 10:39:31;;;;;;;10.60;3.15;;;1.20;99.90;;;;;;4998213;28;20034;-78
2022/01/21 10:42:00;;;;;;;7.00;2.80;;;1.30;99.90;;;;;;4998121;28;20027;-79
2022/01/21 10:44:30;;;;;;;6.60;3.25;;;1.30;99.90;;;;;;4996878;28;20072;-79
2022/01/21 10:47:06;;;;;;;9.50;4.47;;;1.30;99.90;;;;;;4997861;28;20267;-78
2022/01/21 10:49:32;;;;;;;7.55;2.22;;;1.30;99.90;;;;;;4997561;28;20060;-77
2022/01/21 10:51:57;;;;;;;2.15;1.98;;;1.30;99.90;;;;;;4999145;28;20022;-79
2022/01/21 10:54:26;;;;;;;2.97;1.92;;;1.30;99.90;;;;;;4996550;28;20046;-79
2022/01/21 10:57:18;;;;;;;3.72;1.77;;;1.40;99.90;;;;;;4998819;28;20402;-79
2022/01/21 10:59:47;;;;;;;9.60;2.92;;;1.30;99.90;;;;;;4999351;28;20226;-78
2022/01/21 11:02:13;;;;;;;10.80;3.63;;;1.30;99.90;;;;;;4997289;28;20318;-79
2022/01/21 11:04:44;;;;;;;6.10;1.88;;;1.40;99.90;;;;;;4997891;28;20026;-80
2022/01/21 11:07:14;;;;;;;8.10;3.10;;;1.40;99.90;;;;;;4997466;28;20263;-79
2022/01/21 11:09:40;;;;;;;10.55;2.28;;;1.50;99.90;;;;;;4996021;28;20025;-78
2022/01/21 11:12:16;;;;;;;6.68;2.47;;;1.40;99.90;;;;;;4996734;28;20022;-80
2022/01/21 11:14:59;;;;;;;6.18;1.55;;;2.90;99.90;;;;;;4997775;28;20255;-79
2022/01/21 11:17:25;;;;;;;5.32;2.50;;;1.50;99.90;;;;;;4979922;28;20029;-77
2022/01/21 11:20:08;;;;;;;4.20;2.00;;;1.50;99.90;;;;;;4980424;28;20018;-79
2022/01/21 11:22:54;;;;;;;3.50;1.88;;;1.50;99.90;;;;;;4977184;28;20393;-77
2022/01/21 11:26:03;;;;;;;5.15;2.17;;;1.60;99.90;;;;;;4994997;28;20098;-77
2022/01/21 11:28:49;;;;;;;6.40;2.38;;;1.60;99.90;;;;;;4980431;28;20085;-75
2022/01/21 11:31:18;;;;;;;3.45;1.80;;;1.60;99.90;;;;;;4978128;28;20106;-75
2022/01/21 11:33:44;;;;;;;6.90;2.20;;;1.50;99.90;;;;;;4978856;28;20039;-75
2022/01/21 11:36:10;;;;;;;5.70;2.42;;;1.50;99.90;;;;;;4995524;28;20043;-81
2022/01/21 11:38:38;;;;;;;5.82;1.95;;;1.50;99.90;;;;;;4985669;28;20069;-75
2022/01/21 11:41:08;;;;;;;4.13;2.42;;;1.60;99.90;;;;;;4987737;28;20010;-79
2022/01/21 11:43:37;;;;;;;3.25;2.00;;;1.70;99.90;;;;;;4997306;28;20332;-76
2022/01/21 11:48:55;;;;;;;9.43;1.83;;;1.80;99.90;;;;;;4991383;28;20034;-79
2022/01/21 11:51:26;;;;;;;6.03;1.77;;;1.90;99.90;;;;;;4993092;28;20030;-77
2022/01/21 11:53:53;;;;;;;1.73;1.25;;;2.10;99.90;;;;;;4980781;28;20050;-77
2022/01/21 11:56:48;;;;;;;3.95;1.77;;;2.30;99.90;;;;;;4988646;28;20030;-75
2022/01/21 11:59:23;;;;;;;7.95;1.63;;;2.30;99.90;;;;;;4989641;28;20061;-78
2022/01/21 12:01:50;;;;;;;4.00;1.70;;;2.60;99.90;;;;;;4997208;28;20029;-74
2022/01/21 12:04:40;;;;;;;2.83;1.50;;;2.60;99.90;;;;;;4999847;28;20342;-78
2022/01/21 12:07:36;;;;;;;8.35;1.85;;;2.80;99.90;;;;;;4995368;28;20113;-75
2022/01/21 12:10:08;;;;;;;1.15;0.55;;;2.90;99.90;;;;;;4979847;28;20048;-83
2022/01/21 12:12:47;;;;;;;1.98;1.08;;;2.90;99.90;;;;;;4980421;28;20234;-76
2022/01/21 12:19:06;;;;;;;1.38;0.93;;;3.00;99.90;;;;;;4974228;28;20041;-77
2022/01/21 12:21:37;;;;;;;1.58;0.68;;;3.20;99.90;;;;;;4978127;28;20041;-78
2022/01/21 12:24:03;;;;;;;4.20;1.65;;;3.10;99.90;;;;;;4995951;28;20022;-75
2022/01/21 12:26:32;;;;;;;5.38;2.47;;;3.20;99.90;;;;;;4996220;28;20364;-84
2022/01/21 12:28:58;;;;;;;12.70;2.15;;;2.90;99.90;;;;;;4978291;28;20043;-78
2022/01/21 12:31:25;;;;;;;4.78;1.50;;;2.90;99.90;;;;;;4996206;28;20018;-85
2022/01/21 12:36:29;;;;;;;3.03;1.40;;;2.50;99.90;;;;;;4997531;28;20113;-84
2022/01/21 12:41:24;;;;;;;7.28;2.00;;;2.70;99.90;;;;;;4997340;28;20019;-85
2022/01/21 12:44:01;;;;;;;5.22;1.88;;;2.80;99.90;;;;;;4996967;28;20192;-77
2022/01/21 12:46:36;;;;;;;5.32;1.92;;;2.90;99.90;;;;;;4996795;28;20030;-85
2022/01/21 12:49:31;;;;;;;2.40;1.50;;;2.70;99.90;;;;;;4979411;28;20022;-78
2022/01/21 12:57:32;;;;;;;1.20;1.10;;;2.50;99.90;;;;;;4997129;28;20178;-87
2022/01/21 13:00:08;;;;;;;2.05;1.05;;;2.30;99.90;;;;;;4997413;28;20037;-79
2022/01/21 13:02:35;;;;;;;5.75;1.48;;;2.20;99.90;;;;;;5000085;28;20023;-78
2022/01/21 13:05:19;;;;;;;2.63;1.48;;;2.10;99.90;;;;;;4997377;28;20027;-79
2022/01/21 13:08:03;;;;;;;8.98;2.38;;;2.10;99.90;;;;;;4996825;28;20044;-83
2022/01/21 13:10:29;;;;;;;3.10;1.15;;;2.10;99.90;;;;;;4997252;28;20261;-79
2022/01/21 13:13:02;;;;;;;3.33;2.13;;;2.20;99.90;;;;;;4999852;28;20031;-76
2022/01/21 13:15:38;;;;;;;3.03;1.85;;;2.20;99.90;;;;;;4983596;28;20208;-80
2022/01/21 13:18:08;;;;;;;6.30;1.40;;;2.20;99.90;;;;;;4986046;28;20047;-76
2022/01/21 13:20:36;;;;;;;6.93;3.00;;;2.10;99.90;;;;;;4987636;28;20037;-78
2022/01/21 13:23:03;;;;;;;7.20;1.55;;;0.50;99.90;;;;;;4999982;28;20981;-83
2022/01/21 13:25:31;;;;;;;3.17;1.20;;;2.20;99.90;;;;;;4998228;28;20034;-79
2022/01/21 13:28:00;;;;;;;2.03;1.35;;;2.30;99.90;;;;;;4999208;28;20088;-77
2022/01/21 13:30:29;;;;;;;1.20;0.73;;;2.30;99.90;;;;;;4985048;28;20102;-78
2022/01/21 13:33:10;;;;;;;2.20;1.40;;;2.30;99.90;;;;;;4983990;28;20045;-83
2022/01/21 13:35:44;;;;;;;2.97;1.88;;;2.20;99.90;;;;;;4986364;28;20432;-76
2022/01/21 13:38:13;;;;;;;3.15;1.27;;;2.10;99.90;;;;;;4976881;28;20022;-79
2022/01/21 13:40:46;;;;;;;7.53;1.38;;;2.10;99.90;;;;;;4982341;28;20282;-76
2022/01/21 13:43:42;;;;;;;7.53;1.35;;;2.10;99.90;;;;;;4987054;28;20018;-76
2022/01/21 13:46:15;;;;;;;4.15;1.15;;;2.20;99.90;;;;;;4961552;28;20562;-77
2022/01/21 13:48:40;;;;;;;3.20;1.60;;;2.20;99.90;;;;;;4989005;28;20022;-75
2022/01/21 13:51:09;;;;;;;3.10;1.58;;;2.30;99.90;;;;;;4986386;28;20231;-79
2022/01/21 13:53:38;;;;;;;3.83;1.05;;;2.30;99.90;;;;;;4982867;28;20476;-83
2022/01/21 13:56:08;;;;;;;6.05;1.42;;;2.40;99.90;;;;;;4993742;28;20114;-76
2022/01/21 13:58:36;;;;;;;0.68;0.57;;;2.40;99.90;;;;;;4995191;28;20124;-74
2022/01/21 14:01:14;;;;;;;3.42;1.00;;;2.30;99.90;;;;;;4992949;28;20314;-75
2022/01/21 14:03:42;;;;;;;4.68;1.40;;;2.30;99.90;;;;;;5003579;28;20489;-75